Terminal Aerodrome Forecast
Issued by NWS

Home | Current Version | Previous Version | Text Only | Print | Product List | Glossary On
Versions: 1 2 3 4 5 6 7 8 9 10 11 12
000
FTPA31 PHFO 260500
TAFJRF
TAF
PHJR 260520Z 2606/2706 08008KT P6SM SCT035 BKN050
     FM262000 10008KT P6SM SCT030 BKN045
     FM270400 08008KT P6SM SCT035 BKN050=

USA.gov is the U.S. government's official web portal to all federal, state and local government web resources and services.